Airfield :
LOGIN :

Register | Disclaimer

   EN    FR    IT 

 










Legend :    VFR   Marginal VFR   IFR   Intensive IFR   Very Intensive IFR
Visi :
Ceiling :
>= 8 km
>= 3000ft
5 to 8 km
1000 to 3000 ft
1500m to 5 km
500 to 1000 ft
800 to 1500m
200 to 500 ft
< 800m
< 200 ft
Symbols :   Thunderstorms  Fog  Heavy snow  Heavy precipitations  Wind > 20 kt
SIGMETs :     Misc.  Thunderstorms  Icing  Turbulence  Mountain Waves  Volcanic Ashes






- Airport Elevation : 510 ft


LJCE - Cerklje

CURRENT METAR :
  • 250700Z 00000KT CAVOK M06/M07 Q1033 RMK BLU

EXPIRED METARs :
  • 250630Z VRB01KT CAVOK M06/M07 Q1033 RMK BLU
  • 250600Z 18002KT CAVOK M06/M07 Q1033 RMK BLU
  • 250530Z AUTO 17002KT 9999 NCD M05/M06 Q1034
  • 250500Z AUTO 22001KT 9999 NSC M05/M06 Q1034
  • 250430Z AUTO 19002KT 9999 NSC M05/M06 Q1034

TAF TAF LJCE
Valid from the 25 at 06:00 until the 25 at 15:00 UTC


250500Z 2506/2515 26005KT CAVOK



MET'MAP, your aeronautical weather chart ! - Copyright ORBIFLY December 2007 - Disclaimer

ORBIFLY MET'MAP TEAM :

Programming & Development : Alexandra Zaïnal
Original concept : Baudouin d'Aumeries
Technical & hardware support : Manuel Goepfert
Assistance : Marc-Olivier Méhu

Contact : metmap@orbifly.com




SOURCES & CREDITS :

   NOAA